Time;durP1;ratioP1;P1;durP2;ratioP2;P2;SDS_P1;SDS_P2;PMS_P1;PMS_P2;Temp;Humidity;BMP_temperature;BMP_pressure;BME280_temperature;BME280_humidity;BME280_pressure;Samples;Min_cycle;Max_cycle;Signal;HPM_P1;HPM_P2
2021/06/07 00:02:03;;;;;;;3.92;2.20;;;18.50;64.20;21.00;94226.00;;;;10480823;28;47386;-83
2021/06/07 00:07:07;;;;;;;4.22;2.85;;;18.40;64.60;21.00;94222.00;;;;10464228;28;47191;-83
2021/06/07 00:12:14;;;;;;;4.28;2.90;;;18.40;64.70;21.10;94224.00;;;;10497607;28;47697;-83
2021/06/07 00:17:15;;;;;;;3.70;2.40;;;18.50;64.70;21.20;94225.00;;;;10463175;28;47411;-83
2021/06/07 00:22:19;;;;;;;4.30;2.67;;;18.60;64.10;21.30;94214.00;;;;10463410;28;58064;-83
2021/06/07 00:27:19;;;;;;;3.63;2.67;;;18.70;64.00;21.30;94201.00;;;;10463390;28;47470;-84
2021/06/07 00:32:20;;;;;;;4.00;2.47;;;18.70;64.00;21.30;94218.00;;;;10462182;28;75360;-83
2021/06/07 00:37:21;;;;;;;5.25;2.90;;;18.70;63.90;21.40;94203.00;;;;10461851;28;75437;-83
2021/06/07 00:42:22;;;;;;;4.15;2.42;;;18.70;63.90;21.30;94208.00;;;;10462759;28;53637;-83
2021/06/07 00:47:22;;;;;;;4.03;2.15;;;18.70;63.90;21.30;94214.00;;;;10461757;28;75478;-83
2021/06/07 00:52:24;;;;;;;5.15;2.63;;;18.70;63.90;21.20;94214.00;;;;10461162;28;74419;-83
2021/06/07 00:57:24;;;;;;;3.28;2.50;;;18.60;64.10;21.20;94199.00;;;;10479471;28;45417;-83
2021/06/07 01:02:25;;;;;;;3.83;2.40;;;18.50;63.90;21.30;94202.00;;;;10459153;28;74377;-83
2021/06/07 01:07:26;;;;;;;3.75;2.60;;;18.60;63.90;21.20;94205.00;;;;10460402;28;48330;-83
2021/06/07 01:12:27;;;;;;;3.38;2.13;;;18.70;63.70;21.30;94208.00;;;;10493593;28;75156;-84
2021/06/07 01:17:27;;;;;;;2.80;2.17;;;18.70;63.80;21.40;94205.00;;;;10486257;28;73185;-84
2021/06/07 01:22:28;;;;;;;2.78;2.17;;;18.70;63.80;21.40;94209.00;;;;10489222;28;47069;-84
2021/06/07 01:27:29;;;;;;;3.33;2.50;;;18.80;63.70;21.30;94204.00;;;;10491096;28;76538;-85
2021/06/07 01:32:30;;;;;;;3.10;2.20;;;18.70;63.80;21.40;94192.00;;;;10492457;28;74824;-85
2021/06/07 01:37:30;;;;;;;3.10;2.22;;;18.70;64.40;21.40;94196.00;;;;10494628;28;49624;-84
2021/06/07 01:42:31;;;;;;;3.58;2.50;;;18.70;63.50;21.40;94193.00;;;;10489431;28;47264;-83
2021/06/07 01:47:32;;;;;;;3.03;2.38;;;18.80;63.30;21.40;94179.00;;;;10469870;28;47588;-84
2021/06/07 01:52:33;;;;;;;3.35;2.35;;;18.70;63.40;21.30;94184.00;;;;10469823;28;64288;-83
2021/06/07 01:57:34;;;;;;;3.08;2.30;;;18.70;63.30;21.30;94184.00;;;;10471875;28;48198;-84
2021/06/07 02:02:35;;;;;;;4.70;3.20;;;18.70;63.50;21.20;94172.00;;;;10472561;28;77620;-83
2021/06/07 02:07:36;;;;;;;4.50;3.35;;;18.60;63.50;21.20;94170.00;;;;10472027;28;47367;-84
2021/06/07 02:12:36;;;;;;;5.10;3.20;;;18.60;63.30;21.30;94170.00;;;;10469340;28;75802;-84
2021/06/07 02:17:38;;;;;;;4.38;2.88;;;18.60;63.20;21.30;94160.00;;;;10480543;22;75430;-85
2021/06/07 02:22:42;;;;;;;3.90;2.85;;;18.70;63.10;21.40;94168.00;;;;10467363;28;47008;-85
2021/06/07 02:27:44;;;;;;;5.47;3.40;;;18.70;63.40;21.30;94165.00;;;;10466562;28;48398;-85
2021/06/07 02:32:45;;;;;;;5.70;3.58;;;18.60;63.30;21.20;94160.00;;;;10483248;28;47158;-85
2021/06/07 02:37:50;;;;;;;4.32;3.15;;;18.60;63.60;21.20;94156.00;;;;10466040;28;47362;-85
2021/06/07 02:42:51;;;;;;;4.30;3.13;;;18.60;63.60;21.20;94153.00;;;;10466234;28;46970;-85
2021/06/07 02:47:55;;;;;;;5.95;3.60;;;18.60;63.50;21.30;94151.00;;;;10465063;28;72109;-85
2021/06/07 02:52:56;;;;;;;4.55;3.33;;;18.60;63.60;21.30;94164.00;;;;10464769;28;47389;-85
2021/06/07 02:57:58;;;;;;;4.43;3.28;;;18.60;63.40;21.30;94164.00;;;;10464293;28;48396;-85
2021/06/07 03:03:01;;;;;;;6.60;4.07;;;18.60;63.50;21.30;94146.00;;;;10481426;28;47298;-85
2021/06/07 03:08:03;;;;;;;4.95;3.45;;;18.60;63.20;21.20;94157.00;;;;10464018;28;48675;-85
2021/06/07 03:13:04;;;;;;;4.57;3.33;;;18.60;63.40;21.20;94157.00;;;;10464277;28;47133;-85
2021/06/07 03:18:07;;;;;;;4.75;3.20;;;18.60;63.50;21.20;94146.00;;;;10463686;28;51543;-85
2021/06/07 03:23:13;;;;;;;4.38;3.40;;;18.60;63.40;21.30;94153.00;;;;10481009;28;46139;-85
2021/06/07 03:28:15;;;;;;;5.50;3.85;;;18.60;63.40;21.30;94165.00;;;;10463223;28;47459;-85
2021/06/07 03:33:17;;;;;;;4.65;3.53;;;18.60;63.40;21.20;94170.00;;;;10462786;28;47350;-85
2021/06/07 03:38:19;;;;;;;4.53;3.53;;;18.60;63.70;21.20;94163.00;;;;10463192;28;47362;-85
2021/06/07 03:43:23;;;;;;;5.90;3.90;;;18.60;63.40;21.20;94165.00;;;;10462943;28;47215;-86
2021/06/07 03:48:25;;;;;;;6.13;3.45;;;18.50;64.10;21.20;94168.00;;;;10481614;28;45563;-86
2021/06/07 03:53:26;;;;;;;6.82;3.65;;;18.60;63.40;21.20;94163.00;;;;10464820;28;73467;-86
2021/06/07 03:58:29;;;;;;;5.45;3.65;;;18.50;63.40;21.20;94154.00;;;;10463213;28;76003;-86
2021/06/07 04:03:30;;;;;;;5.47;3.70;;;18.50;63.40;21.30;94164.00;;;;10466052;28;48111;-86
2021/06/07 04:08:31;;;;;;;6.53;4.30;;;18.60;63.50;21.20;94165.00;;;;10466440;28;48020;-86
2021/06/07 04:13:32;;;;;;;4.88;3.72;;;18.60;63.10;21.20;94161.00;;;;10485549;28;45489;-85
2021/06/07 04:18:32;;;;;;;5.22;4.00;;;18.50;63.40;21.30;94155.00;;;;10466861;28;75378;-85
2021/06/07 04:23:33;;;;;;;6.38;3.80;;;18.60;63.40;21.30;94167.00;;;;10485738;28;45412;-86
2021/06/07 04:28:35;;;;;;;5.63;4.50;;;18.60;63.30;21.10;94160.00;;;;10465736;28;76169;-83
2021/06/07 04:33:36;;;;;;;5.70;4.28;;;18.50;64.00;21.20;94161.00;;;;10463287;28;47470;-84
2021/06/07 04:38:37;;;;;;;5.57;4.15;;;18.40;64.10;21.30;94165.00;;;;10485191;28;48041;-83
2021/06/07 04:43:38;;;;;;;4.38;3.53;;;18.50;63.70;21.40;94150.00;;;;10489768;28;75293;-84
2021/06/07 04:48:40;;;;;;;5.50;4.03;;;18.60;63.70;21.40;94161.00;;;;10476274;28;49200;-85
2021/06/07 04:53:40;;;;;;;5.28;4.03;;;18.60;64.10;21.50;94149.00;;;;10472558;28;47678;-85
2021/06/07 04:58:41;;;;;;;7.10;4.57;;;18.70;63.60;21.50;94151.00;;;;10469970;28;72926;-84
2021/06/07 05:03:42;;;;;;;5.20;4.00;;;18.80;63.40;21.70;94159.00;;;;10467476;28;73960;-86
2021/06/07 05:08:43;;;;;;;6.35;4.30;;;18.90;63.00;21.80;94159.00;;;;10468196;28;46939;-86
2021/06/07 05:13:44;;;;;;;5.10;3.70;;;19.00;62.70;21.80;94153.00;;;;10467958;28;48123;-87
2021/06/07 05:18:45;;;;;;;6.03;4.45;;;19.00;62.60;22.00;94166.00;;;;10467149;28;65291;-85
2021/06/07 05:23:45;;;;;;;5.57;4.00;;;19.10;62.30;22.00;94166.00;;;;10468978;28;46713;-84
2021/06/07 05:28:46;;;;;;;4.75;3.67;;;19.20;62.00;22.10;94165.00;;;;10469343;28;66912;-87
2021/06/07 05:33:47;;;;;;;5.13;4.18;;;19.30;61.90;22.10;94163.00;;;;10489058;28;74720;-86
2021/06/07 05:38:47;;;;;;;4.53;3.90;;;19.30;63.20;22.00;94165.00;;;;10466039;28;75166;-88
2021/06/07 05:43:48;;;;;;;8.05;4.50;;;19.30;62.50;22.00;94180.00;;;;10484970;28;61568;-84
2021/06/07 05:48:49;;;;;;;5.50;4.03;;;19.20;62.50;22.00;94176.00;;;;10470189;28;51224;-85
2021/06/07 05:53:49;;;;;;;7.32;4.22;;;19.20;62.20;22.10;94177.00;;;;10464436;28;47100;-84
2021/06/07 05:58:56;;;;;;;5.13;4.03;;;19.30;62.80;22.10;94176.00;;;;10440110;28;75629;-83
2021/06/07 06:03:58;;;;;;;7.10;5.38;;;19.40;62.40;21.90;94160.00;;;;10480491;28;47471;-83
2021/06/07 06:08:58;;;;;;;8.57;4.93;;;19.40;61.30;21.70;94178.00;;;;10483904;28;47220;-84
2021/06/07 06:14:01;;;;;;;7.70;5.03;;;19.20;62.50;21.50;94182.00;;;;10467896;28;47349;-85
2021/06/07 06:19:02;;;;;;;5.43;4.20;;;18.90;64.60;21.80;94183.00;;;;10485709;28;45390;-85
2021/06/07 06:24:03;;;;;;;5.50;3.55;;;19.00;63.80;21.90;94173.00;;;;10484946;28;50219;-83
2021/06/07 06:29:06;;;;;;;5.20;4.03;;;19.10;63.60;21.80;94190.00;;;;10486046;28;48117;-84
2021/06/07 06:34:07;;;;;;;5.55;3.40;;;19.00;64.40;22.10;94185.00;;;;10486871;28;48348;-84
2021/06/07 06:39:08;;;;;;;4.85;3.60;;;19.20;64.00;22.40;94181.00;;;;10484114;28;74244;-85
2021/06/07 06:44:09;;;;;;;4.53;3.35;;;19.40;63.00;22.60;94195.00;;;;10468294;28;46927;-84
2021/06/07 06:49:10;;;;;;;5.68;3.65;;;19.60;62.80;22.80;94198.00;;;;10485181;28;50116;-84
2021/06/07 06:54:10;;;;;;;5.50;3.60;;;19.80;61.70;22.90;94207.00;;;;10466224;28;76814;-84
2021/06/07 06:59:11;;;;;;;4.50;3.90;;;19.90;61.90;22.80;94205.00;;;;10465727;28;47020;-88
2021/06/07 07:04:12;;;;;;;5.72;4.10;;;20.00;61.30;22.80;94189.00;;;;10464406;28;75304;-86
2021/06/07 07:09:12;;;;;;;7.78;4.63;;;19.80;62.20;22.80;94205.00;;;;10462392;28;76024;-85
2021/06/07 07:14:13;;;;;;;6.55;4.35;;;19.90;62.10;23.00;94200.00;;;;10463252;28;75525;-86
2021/06/07 07:19:14;;;;;;;8.02;5.25;;;20.00;61.50;23.10;94202.00;;;;10462797;28;47394;-86
2021/06/07 07:24:14;;;;;;;7.07;4.88;;;20.20;61.00;23.10;94205.00;;;;10462533;28;75152;-86
2021/06/07 07:29:15;;;;;;;9.07;5.25;;;20.20;61.20;23.20;94205.00;;;;10462907;28;55133;-86
2021/06/07 07:34:27;;;;;;;5.10;4.07;;;20.30;60.60;23.50;94213.00;;;;10459756;28;75243;-86
2021/06/07 07:40:24;;;;;;;5.03;3.70;;;20.50;61.30;24.20;94215.00;;;;10461772;28;74743;-87
2021/06/07 07:45:28;;;;;;;21.45;9.68;;;20.80;60.20;24.00;94213.00;;;;10462901;28;47484;-87
2021/06/07 07:50:30;;;;;;;9.82;6.68;;;21.00;59.80;24.00;94207.00;;;;10463054;28;47177;-85
2021/06/07 07:55:32;;;;;;;9.60;6.13;;;21.00;59.60;24.00;94220.00;;;;10463203;28;47948;-85
2021/06/07 08:00:33;;;;;;;8.20;6.47;;;21.10;58.70;24.30;94226.00;;;;10462947;28;47530;-86
2021/06/07 08:05:35;;;;;;;14.48;9.35;;;21.20;59.70;24.60;94208.00;;;;10462925;28;47220;-85
2021/06/07 08:10:36;;;;;;;10.50;7.43;;;21.40;58.30;24.30;94219.00;;;;10462560;28;47269;-85
2021/06/07 08:15:37;;;;;;;13.50;9.40;;;21.50;58.00;24.10;94224.00;;;;10461730;28;47601;-84
2021/06/07 08:20:38;;;;;;;12.38;8.15;;;21.30;58.30;23.80;94221.00;;;;10503345;22;48518;-85
2021/06/07 08:25:39;;;;;;;12.55;8.95;;;21.10;59.40;23.90;94232.00;;;;10466064;28;72295;-84
2021/06/07 08:30:39;;;;;;;38.50;14.32;;;21.00;59.80;23.60;94230.00;;;;10470631;28;47720;-83
2021/06/07 08:35:40;;;;;;;81.53;14.80;;;20.90;59.90;23.00;94221.00;;;;10503194;28;50015;-84
2021/06/07 08:40:41;;;;;;;18.77;12.40;;;20.50;61.20;22.70;94230.00;;;;10503286;28;61047;-85
2021/06/07 08:45:42;;;;;;;11.82;8.43;;;20.10;62.90;22.70;94231.00;;;;10520310;28;45344;-86
2021/06/07 08:50:43;;;;;;;14.88;8.73;;;20.10;63.00;22.80;94240.00;;;;10470995;28;75793;-85
2021/06/07 08:55:44;;;;;;;13.68;9.32;;;20.00;63.20;22.70;94234.00;;;;10468715;28;47376;-86
2021/06/07 09:00:45;;;;;;;15.30;10.15;;;19.90;63.70;22.80;94240.00;;;;10465416;28;48434;-87
2021/06/07 09:05:57;;;;;;;13.57;9.60;;;20.00;62.70;22.80;94244.00;;;;10481407;28;75394;-88
2021/06/07 09:10:58;;;;;;;13.32;9.60;;;20.00;62.40;23.00;94243.00;;;;10464569;28;47508;-86
2021/06/07 09:16:00;;;;;;;11.07;8.07;;;20.20;62.20;23.20;94237.00;;;;10481731;28;45533;-86
2021/06/07 09:21:12;;;;;;;8.27;5.82;;;20.40;61.20;23.70;94238.00;;;;10463551;28;47200;-85
2021/06/07 09:26:33;;;;;;;9.20;6.80;;;20.70;61.10;24.00;94226.00;;;;10463886;28;48269;-85
2021/06/07 09:31:44;;;;;;;16.55;10.10;;;20.90;60.70;24.20;94230.00;;;;10466474;28;47243;-88
2021/06/07 09:36:45;;;;;;;10.80;7.45;;;21.00;60.10;24.30;94238.00;;;;10472732;28;47462;-87
2021/06/07 09:41:56;;;;;;;12.02;8.38;;;21.30;59.20;24.50;94236.00;;;;10451934;27;48326;-86
2021/06/07 09:47:20;;;;;;;9.57;6.90;;;21.40;59.20;24.40;94244.00;;;;10452627;28;48581;-86
2021/06/07 09:52:45;;;;;;;10.50;7.82;;;21.40;58.10;23.90;94246.00;;;;10447234;28;47307;-86
2021/06/07 09:58:05;;;;;;;16.95;10.93;;;21.10;59.90;23.40;94244.00;;;;10446745;28;46964;-86
2021/06/07 10:03:31;;;;;;;25.88;10.15;;;20.80;60.60;23.00;94246.00;;;;10456121;28;47141;-86
2021/06/07 10:08:47;;;;;;;14.52;8.18;;;20.40;61.80;22.70;94255.00;;;;10475668;28;47453;-85
2021/06/07 10:13:50;;;;;;;10.57;7.47;;;20.30;63.20;22.30;94237.00;;;;10488987;28;48159;-86
2021/06/07 10:18:50;;;;;;;6.32;4.38;;;19.90;64.40;22.40;94252.00;;;;10488165;28;51095;-85
2021/06/07 10:23:52;;;;;;;11.60;8.05;;;19.70;65.10;22.60;94240.00;;;;10472235;28;75356;-85
2021/06/07 10:28:55;;;;;;;17.63;9.48;;;19.90;64.70;23.10;94248.00;;;;10447536;28;74523;-85
2021/06/07 10:34:01;;;;;;;8.80;6.32;;;20.20;63.50;23.30;94253.00;;;;10431396;28;47390;-85
2021/06/07 10:39:26;;;;;;;8.40;5.40;;;20.40;63.00;24.10;94241.00;;;;10431480;28;47099;-86
2021/06/07 10:44:36;;;;;;;7.18;5.40;;;20.80;62.70;24.40;94249.00;;;;10429003;28;47184;-86
2021/06/07 10:49:38;;;;;;;6.20;4.55;;;21.00;63.50;24.70;94251.00;;;;10419209;27;47142;-85
2021/06/07 10:54:42;;;;;;;4.78;3.28;;;21.40;60.60;25.00;94240.00;;;;10440322;28;47228;-84
2021/06/07 10:59:52;;;;;;;4.57;3.40;;;21.70;59.20;25.00;94238.00;;;;10433547;28;48594;-84
2021/06/07 11:05:26;;;;;;;3.85;2.70;;;21.60;62.00;25.00;94247.00;;;;10458506;28;47443;-83
2021/06/07 11:10:36;;;;;;;5.63;3.67;;;21.70;58.80;25.20;94236.00;;;;10464320;28;47294;-82
2021/06/07 11:15:59;;;;;;;3.10;2.65;;;22.00;58.50;25.70;94231.00;;;;10481005;28;47046;-83
2021/06/07 11:21:05;;;;;;;2.72;1.90;;;22.20;58.60;25.80;94231.00;;;;10480058;28;47448;-83
2021/06/07 11:26:09;;;;;;;2.15;1.63;;;22.20;59.60;25.40;94238.00;;;;10480449;28;48621;-83
2021/06/07 11:31:19;;;;;;;3.03;1.55;;;22.00;59.90;24.60;94223.00;;;;10480240;28;47348;-83
2021/06/07 11:36:45;;;;;;;2.08;1.40;;;21.40;60.90;24.10;94222.00;;;;10480536;28;47511;-83
2021/06/07 11:42:00;;;;;;;1.90;1.13;;;20.90;62.60;23.80;94222.00;;;;10480476;28;47244;-83
2021/06/07 11:47:01;;;;;;;1.40;1.00;;;20.70;62.50;23.40;94219.00;;;;10480134;28;47009;-83
2021/06/07 11:52:10;;;;;;;2.28;0.90;;;20.60;63.50;23.30;94224.00;;;;10478860;28;47368;-83
2021/06/07 11:57:12;;;;;;;1.05;0.80;;;20.30;64.10;23.20;94225.00;;;;10479551;28;47124;-83
2021/06/07 12:02:17;;;;;;;0.95;0.40;;;20.40;62.70;22.60;94217.00;;;;10462407;28;48382;-83
2021/06/07 12:07:20;;;;;;;1.17;0.50;;;19.80;65.80;22.60;94212.00;;;;10463084;28;47575;-84
2021/06/07 12:12:21;;;;;;;0.20;0.20;;;19.60;66.00;23.10;94220.00;;;;10462298;28;48196;-83
2021/06/07 12:17:25;;;;;;;0.45;0.30;;;20.00;64.70;23.70;94208.00;;;;10447028;28;47600;-85
2021/06/07 12:22:46;;;;;;;1.73;0.50;;;20.70;62.00;24.00;94213.00;;;;10437124;28;47180;-82
2021/06/07 12:33:33;;;;;;;0.20;0.20;;;21.80;59.40;25.20;94200.00;;;;10442765;28;45685;-84
2021/06/07 12:38:52;;;;;;;0.52;0.38;;;21.90;59.50;25.10;94212.00;;;;10421725;27;45406;-85
2021/06/07 12:44:26;;;;;;;0.40;0.30;;;21.60;60.00;24.70;94209.00;;;;10420356;28;47113;-85
2021/06/07 12:49:29;;;;;;;0.40;0.30;;;21.30;61.20;24.30;94195.00;;;;10432454;28;47474;-85
2021/06/07 12:54:32;;;;;;;0.40;0.40;;;21.10;60.70;23.60;94188.00;;;;10457531;28;47174;-84
2021/06/07 12:59:53;;;;;;;0.35;0.25;;;20.40;64.10;23.80;94195.00;;;;10478537;28;46451;-84
2021/06/07 13:04:54;;;;;;;0.70;0.40;;;20.30;64.00;23.70;94194.00;;;;10439472;28;73475;-84
2021/06/07 13:09:54;;;;;;;0.60;0.40;;;20.50;64.40;23.50;94193.00;;;;10425168;28;75305;-84
2021/06/07 13:14:56;;;;;;;0.93;0.30;;;20.30;64.00;23.40;94196.00;;;;10432444;28;48308;-84
2021/06/07 13:19:58;;;;;;;0.57;0.45;;;20.20;64.10;23.00;94191.00;;;;10443041;28;47328;-84
2021/06/07 13:24:59;;;;;;;0.73;0.60;;;19.90;66.50;23.00;94203.00;;;;10455346;28;46972;-84
2021/06/07 13:30:08;;;;;;;0.60;0.50;;;20.00;65.30;22.70;94197.00;;;;10466540;28;75669;-84
2021/06/07 13:35:12;;;;;;;0.80;0.77;;;19.90;65.70;21.90;94183.00;;;;10463682;28;48316;-85
2021/06/07 13:40:32;;;;;;;0.70;0.70;;;19.20;67.40;21.50;94206.00;;;;10464739;28;47111;-84
2021/06/07 13:45:39;;;;;;;0.60;0.60;;;18.70;68.50;21.50;94206.00;;;;10425546;28;48320;-84
2021/06/07 13:50:48;;;;;;;;;;;18.60;69.80;22.70;94201.00;;;;10426520;28;47270;-85
2021/06/07 13:55:50;;;;;;;2.45;1.23;;;19.30;67.70;22.40;94194.00;;;;10442251;28;48345;-85
2021/06/07 14:00:56;;;;;;;1.27;1.00;;;19.60;66.70;22.50;94204.00;;;;10425599;28;48374;-86
2021/06/07 14:06:01;;;;;;;0.80;0.80;;;19.70;66.30;22.40;94199.00;;;;10424851;28;48064;-87
2021/06/07 14:11:12;;;;;;;2.80;0.88;;;19.60;66.40;22.20;94197.00;;;;10424209;28;47769;-84
2021/06/07 14:16:23;;;;;;;1.50;0.93;;;19.30;67.80;22.20;94187.00;;;;10440042;28;47155;-84
2021/06/07 19:29:06;;;;;;;2.58;2.28;;;21.00;62.00;23.90;94237.00;;;;10474132;28;45461;-87
2021/06/07 20:24:30;;;;;;;1.48;1.38;;;20.20;62.70;22.80;94287.00;;;;10596228;22;45321;-82
2021/06/07 20:29:30;;;;;;;2.22;2.03;;;20.20;63.30;22.80;94289.00;;;;10502157;28;75725;-83
2021/06/07 20:34:31;;;;;;;5.03;3.88;;;20.20;62.80;22.50;94301.00;;;;10502411;28;75688;-83
2021/06/07 20:39:32;;;;;;;6.30;4.80;;;19.90;64.00;21.90;94309.00;;;;10495217;28;77118;-82
2021/06/07 20:44:32;;;;;;;5.80;3.92;;;19.50;65.50;21.30;94308.00;;;;10512206;28;47999;-82
2021/06/07 20:49:35;;;;;;;2.78;2.13;;;19.00;66.60;20.80;94316.00;;;;10494454;28;75267;-83
2021/06/07 20:54:36;;;;;;;2.53;1.60;;;18.40;66.00;20.70;94323.00;;;;10495771;28;47403;-82
2021/06/07 20:59:37;;;;;;;2.17;1.67;;;18.30;65.70;20.70;94318.00;;;;10512373;28;70837;-82
2021/06/07 21:04:38;;;;;;;2.05;1.60;;;18.20;66.50;20.90;94320.00;;;;10495629;28;46938;-83
2021/06/07 21:09:39;;;;;;;1.50;1.20;;;18.30;66.20;21.00;94329.00;;;;10494586;28;47091;-83
2021/06/07 21:14:40;;;;;;;1.38;1.08;;;18.50;64.80;21.30;94329.00;;;;10501888;28;47257;-82
2021/06/07 21:19:40;;;;;;;1.83;1.10;;;18.70;65.00;21.40;94317.00;;;;10519991;28;48106;-82
2021/06/07 21:24:41;;;;;;;2.55;1.10;;;18.80;64.30;21.40;94303.00;;;;10496989;27;47161;-82
2021/06/07 21:29:42;;;;;;;0.90;0.73;;;18.90;64.40;21.20;94302.00;;;;10521194;28;48557;-83
2021/06/07 21:34:43;;;;;;;1.52;0.70;;;18.70;63.60;21.10;94301.00;;;;10504900;28;47244;-82
2021/06/07 21:39:43;;;;;;;0.70;0.70;;;18.50;64.50;20.90;94279.00;;;;10498940;28;47910;-82
2021/06/07 21:44:44;;;;;;;0.77;0.75;;;18.40;65.00;20.50;94276.00;;;;10520340;28;63368;-83
2021/06/07 21:49:45;;;;;;;0.63;0.63;;;18.10;66.30;20.40;94266.00;;;;10502283;28;46945;-82
2021/06/07 21:54:45;;;;;;;0.93;0.60;;;17.80;66.80;20.40;94277.00;;;;10502045;28;62383;-82
2021/06/07 21:59:49;;;;;;;0.75;0.65;;;17.90;66.20;20.50;94267.00;;;;10501556;28;75345;-82
2021/06/07 22:04:50;;;;;;;1.48;0.88;;;17.90;66.20;20.50;94271.00;;;;10519584;28;45545;-82
2021/06/07 22:09:51;;;;;;;1.05;0.70;;;18.00;66.30;20.50;94269.00;;;;10501684;28;47145;-83
2021/06/07 22:14:52;;;;;;;3.03;0.90;;;18.00;66.20;20.40;94271.00;;;;10510671;28;75996;-82
2021/06/07 22:19:53;;;;;;;1.60;0.70;;;17.80;66.80;20.40;94266.00;;;;10529109;28;71067;-83
2021/06/07 22:24:53;;;;;;;2.25;0.75;;;17.70;67.20;20.70;94275.00;;;;10540655;28;52569;-82
2021/06/07 22:29:55;;;;;;;1.60;0.88;;;18.00;66.30;20.80;94276.00;;;;10503925;28;49296;-82
2021/06/07 22:34:57;;;;;;;1.23;0.70;;;18.20;65.90;20.70;94268.00;;;;10503135;28;47267;-83
2021/06/07 22:39:57;;;;;;;1.40;1.02;;;18.20;65.80;20.50;94268.00;;;;10501889;28;68626;-82
2021/06/07 22:44:58;;;;;;;1.40;1.00;;;17.90;66.50;20.20;94248.00;;;;10502348;28;48575;-84
2021/06/07 22:49:59;;;;;;;0.88;0.80;;;17.70;67.50;20.30;94250.00;;;;10503118;28;49281;-82
2021/06/07 22:55:00;;;;;;;2.20;0.80;;;17.70;67.70;20.50;94263.00;;;;10518356;28;49480;-82
2021/06/07 23:00:07;;;;;;;2.30;0.90;;;17.90;67.10;20.70;94257.00;;;;10500936;28;50555;-82
2021/06/07 23:05:09;;;;;;;1.05;0.80;;;18.10;66.50;20.80;94259.00;;;;10500786;28;51725;-83
2021/06/07 23:10:10;;;;;;;0.95;0.70;;;18.20;66.00;20.60;94252.00;;;;10499942;28;47051;-82
2021/06/07 23:15:14;;;;;;;1.40;0.70;;;18.10;66.30;20.70;94251.00;;;;10499793;28;47365;-82
2021/06/07 23:20:14;;;;;;;0.73;0.45;;;18.10;67.30;20.80;94250.00;;;;10499078;28;47218;-82
2021/06/07 23:25:15;;;;;;;0.85;0.75;;;18.10;66.60;20.90;94246.00;;;;10498965;28;47510;-82
2021/06/07 23:30:17;;;;;;;1.20;1.00;;;18.20;66.10;20.90;94235.00;;;;10499041;28;47225;-82
2021/06/07 23:35:18;;;;;;;2.35;1.42;;;18.30;66.30;20.80;94229.00;;;;10515733;28;45420;-82
2021/06/07 23:40:18;;;;;;;2.72;1.65;;;18.20;66.50;20.70;94223.00;;;;10497519;28;74972;-82
2021/06/07 23:45:21;;;;;;;3.33;2.10;;;18.10;67.40;20.80;94220.00;;;;10497601;28;57806;-82
2021/06/07 23:50:25;;;;;;;2.60;1.92;;;18.10;67.50;20.90;94205.00;;;;10496349;28;47107;-82
2021/06/07 23:55:25;;;;;;;3.30;2.03;;;18.20;67.30;21.00;94210.00;;;;10513403;28;48389;-82
